sensor_id;sensor_type;location;lat;lon;timestamp;temperature;humidity
19206;DHT22;59358;52.134;5.596;2023-04-24T00:00:53;9.60;99.90
19206;DHT22;59358;52.134;5.596;2023-04-24T00:03:23;9.50;99.90
19206;DHT22;59358;52.134;5.596;2023-04-24T00:05:50;9.50;99.90
19206;DHT22;59358;52.134;5.596;2023-04-24T00:08:17;9.50;99.90
19206;DHT22;59358;52.134;5.596;2023-04-24T00:10:45;9.50;99.90
19206;DHT22;59358;52.134;5.596;2023-04-24T00:13:12;9.50;99.90
19206;DHT22;59358;52.134;5.596;2023-04-24T00:15:39;9.50;99.90
19206;DHT22;59358;52.134;5.596;2023-04-24T00:18:06;9.60;99.90
19206;DHT22;59358;52.134;5.596;2023-04-24T00:20:34;9.60;99.90
19206;DHT22;59358;52.134;5.596;2023-04-24T00:23:02;9.60;99.90
19206;DHT22;59358;52.134;5.596;2023-04-24T00:25:28;9.60;99.90
19206;DHT22;59358;52.134;5.596;2023-04-24T00:27:55;9.70;99.90
19206;DHT22;59358;52.134;5.596;2023-04-24T00:30:22;9.60;99.90
19206;DHT22;59358;52.134;5.596;2023-04-24T00:32:49;9.60;99.90
19206;DHT22;59358;52.134;5.596;2023-04-24T00:35:16;9.70;99.90
19206;DHT22;59358;52.134;5.596;2023-04-24T00:37:46;9.70;99.90
19206;DHT22;59358;52.134;5.596;2023-04-24T00:40:13;9.60;99.90
19206;DHT22;59358;52.134;5.596;2023-04-24T00:42:40;9.60;99.90
19206;DHT22;59358;52.134;5.596;2023-04-24T00:45:08;9.60;99.90
19206;DHT22;59358;52.134;5.596;2023-04-24T00:47:36;9.60;99.90
19206;DHT22;59358;52.134;5.596;2023-04-24T00:50:03;9.60;99.90
19206;DHT22;59358;52.134;5.596;2023-04-24T00:52:30;9.50;99.90
19206;DHT22;59358;52.134;5.596;2023-04-24T00:54:59;9.50;99.90
19206;DHT22;59358;52.134;5.596;2023-04-24T00:57:27;9.50;99.90
19206;DHT22;59358;52.134;5.596;2023-04-24T00:59:54;9.50;99.90
19206;DHT22;59358;52.134;5.596;2023-04-24T01:02:22;9.50;99.90
19206;DHT22;59358;52.134;5.596;2023-04-24T01:04:50;9.50;99.90
19206;DHT22;59358;52.134;5.596;2023-04-24T01:07:19;9.50;99.90
19206;DHT22;59358;52.134;5.596;2023-04-24T01:09:48;9.50;99.90
19206;DHT22;59358;52.134;5.596;2023-04-24T01:12:18;9.60;99.90
19206;DHT22;59358;52.134;5.596;2023-04-24T01:14:47;9.50;99.90
19206;DHT22;59358;52.134;5.596;2023-04-24T01:17:14;9.60;99.90
19206;DHT22;59358;52.134;5.596;2023-04-24T01:19:41;9.60;99.90
19206;DHT22;59358;52.134;5.596;2023-04-24T01:22:15;9.50;99.90
19206;DHT22;59358;52.134;5.596;2023-04-24T01:24:51;9.50;99.90
19206;DHT22;59358;52.134;5.596;2023-04-24T01:27:18;9.50;99.90
19206;DHT22;59358;52.134;5.596;2023-04-24T01:29:45;9.50;99.90
19206;DHT22;59358;52.134;5.596;2023-04-24T01:32:13;9.50;99.90
19206;DHT22;59358;52.134;5.596;2023-04-24T01:34:40;9.50;99.90
19206;DHT22;59358;52.134;5.596;2023-04-24T01:37:07;9.50;99.90
19206;DHT22;59358;52.134;5.596;2023-04-24T01:39:35;9.40;99.90
19206;DHT22;59358;52.134;5.596;2023-04-24T01:42:05;9.50;99.90
19206;DHT22;59358;52.134;5.596;2023-04-24T01:44:33;9.50;99.90
19206;DHT22;59358;52.134;5.596;2023-04-24T01:47:01;9.50;99.90
19206;DHT22;59358;52.134;5.596;2023-04-24T01:49:28;9.50;99.90
19206;DHT22;59358;52.134;5.596;2023-04-24T01:51:55;9.50;99.90
19206;DHT22;59358;52.134;5.596;2023-04-24T01:54:21;9.60;99.90
19206;DHT22;59358;52.134;5.596;2023-04-24T01:56:49;9.60;99.90
19206;DHT22;59358;52.134;5.596;2023-04-24T01:59:17;9.60;99.90
19206;DHT22;59358;52.134;5.596;2023-04-24T02:01:44;9.70;99.90
19206;DHT22;59358;52.134;5.596;2023-04-24T02:04:10;9.70;99.90
19206;DHT22;59358;52.134;5.596;2023-04-24T02:06:37;9.70;99.90
19206;DHT22;59358;52.134;5.596;2023-04-24T02:09:04;9.70;99.90
19206;DHT22;59358;52.134;5.596;2023-04-24T02:11:31;9.70;99.90
19206;DHT22;59358;52.134;5.596;2023-04-24T02:13:59;9.70;99.90
19206;DHT22;59358;52.134;5.596;2023-04-24T02:16:28;9.70;99.90
19206;DHT22;59358;52.134;5.596;2023-04-24T02:18:58;9.60;99.90
19206;DHT22;59358;52.134;5.596;2023-04-24T02:21:25;9.60;99.90
19206;DHT22;59358;52.134;5.596;2023-04-24T02:23:52;9.60;99.90
19206;DHT22;59358;52.134;5.596;2023-04-24T02:26:19;9.60;99.90
19206;DHT22;59358;52.134;5.596;2023-04-24T02:28:46;9.50;99.90
19206;DHT22;59358;52.134;5.596;2023-04-24T02:31:14;9.50;99.90
19206;DHT22;59358;52.134;5.596;2023-04-24T02:33:41;9.60;99.90
19206;DHT22;59358;52.134;5.596;2023-04-24T02:36:08;9.60;99.90
19206;DHT22;59358;52.134;5.596;2023-04-24T02:38:34;9.60;99.90
19206;DHT22;59358;52.134;5.596;2023-04-24T02:41:01;9.60;99.90
19206;DHT22;59358;52.134;5.596;2023-04-24T02:43:31;9.60;99.90
19206;DHT22;59358;52.134;5.596;2023-04-24T02:45:58;9.60;99.90
19206;DHT22;59358;52.134;5.596;2023-04-24T02:48:26;9.60;99.90
19206;DHT22;59358;52.134;5.596;2023-04-24T02:50:53;9.70;99.90
19206;DHT22;59358;52.134;5.596;2023-04-24T02:53:20;9.70;99.90
19206;DHT22;59358;52.134;5.596;2023-04-24T02:55:47;9.70;99.90
19206;DHT22;59358;52.134;5.596;2023-04-24T02:58:13;9.60;99.90
19206;DHT22;59358;52.134;5.596;2023-04-24T03:00:41;9.70;99.90
19206;DHT22;59358;52.134;5.596;2023-04-24T03:03:08;9.60;99.90
19206;DHT22;59358;52.134;5.596;2023-04-24T03:05:37;9.60;99.90
19206;DHT22;59358;52.134;5.596;2023-04-24T03:08:03;9.70;99.90
19206;DHT22;59358;52.134;5.596;2023-04-24T03:10:31;9.70;99.90
19206;DHT22;59358;52.134;5.596;2023-04-24T03:12:58;9.70;99.90
19206;DHT22;59358;52.134;5.596;2023-04-24T03:15:25;9.70;99.90
19206;DHT22;59358;52.134;5.596;2023-04-24T03:17:52;9.60;99.90
19206;DHT22;59358;52.134;5.596;2023-04-24T03:20:19;9.60;99.90
19206;DHT22;59358;52.134;5.596;2023-04-24T03:22:48;9.60;99.90
19206;DHT22;59358;52.134;5.596;2023-04-24T03:25:15;9.60;99.90
19206;DHT22;59358;52.134;5.596;2023-04-24T03:27:41;9.60;99.90
19206;DHT22;59358;52.134;5.596;2023-04-24T03:30:08;9.60;99.90
19206;DHT22;59358;52.134;5.596;2023-04-24T03:32:35;9.70;99.90
19206;DHT22;59358;52.134;5.596;2023-04-24T03:35:05;9.70;99.90
19206;DHT22;59358;52.134;5.596;2023-04-24T03:37:32;9.70;99.90
19206;DHT22;59358;52.134;5.596;2023-04-24T03:40:00;9.70;99.90
19206;DHT22;59358;52.134;5.596;2023-04-24T03:42:28;9.60;99.90
19206;DHT22;59358;52.134;5.596;2023-04-24T03:44:54;9.60;99.90
19206;DHT22;59358;52.134;5.596;2023-04-24T03:47:21;9.70;99.90
19206;DHT22;59358;52.134;5.596;2023-04-24T03:49:48;9.70;99.90
19206;DHT22;59358;52.134;5.596;2023-04-24T03:52:15;9.60;99.90
19206;DHT22;59358;52.134;5.596;2023-04-24T03:54:42;9.60;99.90
19206;DHT22;59358;52.134;5.596;2023-04-24T03:57:10;9.60;99.90
19206;DHT22;59358;52.134;5.596;2023-04-24T03:59:37;9.60;99.90
19206;DHT22;59358;52.134;5.596;2023-04-24T04:02:04;9.60;99.90
19206;DHT22;59358;52.134;5.596;2023-04-24T04:04:30;9.70;99.90
19206;DHT22;59358;52.134;5.596;2023-04-24T04:06:57;9.60;99.90
19206;DHT22;59358;52.134;5.596;2023-04-24T04:09:26;9.70;99.90
19206;DHT22;59358;52.134;5.596;2023-04-24T04:11:53;9.60;99.90
19206;DHT22;59358;52.134;5.596;2023-04-24T04:14:22;9.60;99.90
19206;DHT22;59358;52.134;5.596;2023-04-24T04:16:48;9.60;99.90
19206;DHT22;59358;52.134;5.596;2023-04-24T04:19:16;9.60;99.90
19206;DHT22;59358;52.134;5.596;2023-04-24T04:21:43;9.50;99.90
19206;DHT22;59358;52.134;5.596;2023-04-24T04:24:11;9.50;99.90
19206;DHT22;59358;52.134;5.596;2023-04-24T04:26:38;9.40;99.90
19206;DHT22;59358;52.134;5.596;2023-04-24T04:29:06;9.40;99.90
19206;DHT22;59358;52.134;5.596;2023-04-24T04:31:34;9.40;99.90
19206;DHT22;59358;52.134;5.596;2023-04-24T04:34:01;9.40;99.90
19206;DHT22;59358;52.134;5.596;2023-04-24T04:36:28;9.40;99.90
19206;DHT22;59358;52.134;5.596;2023-04-24T04:38:55;9.40;99.90
19206;DHT22;59358;52.134;5.596;2023-04-24T04:41:24;9.40;99.90
19206;DHT22;59358;52.134;5.596;2023-04-24T04:43:51;9.40;99.90
19206;DHT22;59358;52.134;5.596;2023-04-24T04:46:18;9.40;99.90
19206;DHT22;59358;52.134;5.596;2023-04-24T04:48:49;9.50;99.90
19206;DHT22;59358;52.134;5.596;2023-04-24T04:51:16;9.50;99.90
19206;DHT22;59358;52.134;5.596;2023-04-24T04:53:42;9.60;99.90
19206;DHT22;59358;52.134;5.596;2023-04-24T04:56:10;9.60;99.90
19206;DHT22;59358;52.134;5.596;2023-04-24T04:58:37;9.60;99.90
19206;DHT22;59358;52.134;5.596;2023-04-24T05:01:05;9.50;99.90
19206;DHT22;59358;52.134;5.596;2023-04-24T05:03:32;9.60;99.90
19206;DHT22;59358;52.134;5.596;2023-04-24T05:06:00;9.50;99.90
19206;DHT22;59358;52.134;5.596;2023-04-24T05:08:27;9.50;99.90
19206;DHT22;59358;52.134;5.596;2023-04-24T05:10:55;9.50;99.90
19206;DHT22;59358;52.134;5.596;2023-04-24T05:13:22;9.50;99.90
19206;DHT22;59358;52.134;5.596;2023-04-24T05:15:49;9.40;99.90
19206;DHT22;59358;52.134;5.596;2023-04-24T05:18:16;9.40;99.90
19206;DHT22;59358;52.134;5.596;2023-04-24T05:20:43;9.40;99.90
19206;DHT22;59358;52.134;5.596;2023-04-24T05:23:11;9.30;99.90
19206;DHT22;59358;52.134;5.596;2023-04-24T05:25:38;9.40;99.90
19206;DHT22;59358;52.134;5.596;2023-04-24T05:28:05;9.40;99.90
19206;DHT22;59358;52.134;5.596;2023-04-24T05:30:32;9.50;99.90
19206;DHT22;59358;52.134;5.596;2023-04-24T05:32:59;9.50;99.90
19206;DHT22;59358;52.134;5.596;2023-04-24T05:35:26;9.50;99.90
19206;DHT22;59358;52.134;5.596;2023-04-24T05:37:53;9.50;99.90
19206;DHT22;59358;52.134;5.596;2023-04-24T05:40:21;9.60;99.90
19206;DHT22;59358;52.134;5.596;2023-04-24T05:42:48;9.70;99.90
19206;DHT22;59358;52.134;5.596;2023-04-24T05:45:15;9.70;99.90
19206;DHT22;59358;52.134;5.596;2023-04-24T05:47:42;9.80;99.90
19206;DHT22;59358;52.134;5.596;2023-04-24T05:50:09;9.90;99.90
19206;DHT22;59358;52.134;5.596;2023-04-24T05:52:36;9.80;99.90
19206;DHT22;59358;52.134;5.596;2023-04-24T05:55:04;9.80;99.90
19206;DHT22;59358;52.134;5.596;2023-04-24T05:57:32;9.80;99.90
19206;DHT22;59358;52.134;5.596;2023-04-24T05:59:59;9.80;99.90
19206;DHT22;59358;52.134;5.596;2023-04-24T06:02:26;9.80;99.90
19206;DHT22;59358;52.134;5.596;2023-04-24T06:04:52;9.70;99.90
19206;DHT22;59358;52.134;5.596;2023-04-24T06:07:20;9.80;99.90
19206;DHT22;59358;52.134;5.596;2023-04-24T06:09:47;9.80;99.90
19206;DHT22;59358;52.134;5.596;2023-04-24T06:12:14;9.80;99.90
19206;DHT22;59358;52.134;5.596;2023-04-24T06:14:42;9.80;99.90
19206;DHT22;59358;52.134;5.596;2023-04-24T06:17:09;9.70;99.90
19206;DHT22;59358;52.134;5.596;2023-04-24T06:19:35;9.60;99.90
19206;DHT22;59358;52.134;5.596;2023-04-24T06:22:02;9.60;99.90
19206;DHT22;59358;52.134;5.596;2023-04-24T06:24:29;9.60;99.90
19206;DHT22;59358;52.134;5.596;2023-04-24T06:26:56;9.60;99.90
19206;DHT22;59358;52.134;5.596;2023-04-24T06:29:24;9.60;99.90
19206;DHT22;59358;52.134;5.596;2023-04-24T06:31:52;9.70;99.90
19206;DHT22;59358;52.134;5.596;2023-04-24T06:34:19;9.60;99.90
19206;DHT22;59358;52.134;5.596;2023-04-24T06:36:46;9.60;99.90
19206;DHT22;59358;52.134;5.596;2023-04-24T06:39:13;9.50;99.90
19206;DHT22;59358;52.134;5.596;2023-04-24T06:41:40;9.50;99.90
19206;DHT22;59358;52.134;5.596;2023-04-24T06:44:07;9.40;99.90
19206;DHT22;59358;52.134;5.596;2023-04-24T06:46:34;9.30;99.90
19206;DHT22;59358;52.134;5.596;2023-04-24T06:49:02;9.20;99.90
19206;DHT22;59358;52.134;5.596;2023-04-24T06:51:29;9.30;99.90
19206;DHT22;59358;52.134;5.596;2023-04-24T06:53:58;9.30;99.90
19206;DHT22;59358;52.134;5.596;2023-04-24T06:56:26;9.30;99.90
19206;DHT22;59358;52.134;5.596;2023-04-24T06:58:54;9.20;99.90
19206;DHT22;59358;52.134;5.596;2023-04-24T07:01:21;9.20;99.90
19206;DHT22;59358;52.134;5.596;2023-04-24T07:03:48;9.20;99.90
19206;DHT22;59358;52.134;5.596;2023-04-24T07:06:16;9.20;99.90
19206;DHT22;59358;52.134;5.596;2023-04-24T07:08:44;9.10;99.90
19206;DHT22;59358;52.134;5.596;2023-04-24T07:11:13;9.10;99.90
19206;DHT22;59358;52.134;5.596;2023-04-24T07:13:40;9.10;99.90
19206;DHT22;59358;52.134;5.596;2023-04-24T07:16:08;9.10;99.90
19206;DHT22;59358;52.134;5.596;2023-04-24T07:18:35;9.10;99.90
19206;DHT22;59358;52.134;5.596;2023-04-24T07:21:02;9.10;99.90
19206;DHT22;59358;52.134;5.596;2023-04-24T07:23:30;9.10;99.90
19206;DHT22;59358;52.134;5.596;2023-04-24T07:25:57;9.00;99.90
19206;DHT22;59358;52.134;5.596;2023-04-24T07:28:24;9.00;99.90
19206;DHT22;59358;52.134;5.596;2023-04-24T07:30:51;9.00;99.90
19206;DHT22;59358;52.134;5.596;2023-04-24T07:33:22;9.00;99.90
19206;DHT22;59358;52.134;5.596;2023-04-24T07:35:56;9.00;99.90
19206;DHT22;59358;52.134;5.596;2023-04-24T07:38:23;9.00;99.90
19206;DHT22;59358;52.134;5.596;2023-04-24T07:40:52;9.00;99.90
19206;DHT22;59358;52.134;5.596;2023-04-24T07:43:20;9.00;99.90
19206;DHT22;59358;52.134;5.596;2023-04-24T07:45:46;8.90;99.90
19206;DHT22;59358;52.134;5.596;2023-04-24T07:48:13;8.90;99.90
19206;DHT22;59358;52.134;5.596;2023-04-24T07:50:42;8.80;99.90
19206;DHT22;59358;52.134;5.596;2023-04-24T07:53:08;8.90;99.90
19206;DHT22;59358;52.134;5.596;2023-04-24T07:55:35;8.90;99.90
19206;DHT22;59358;52.134;5.596;2023-04-24T07:58:05;8.90;99.90
19206;DHT22;59358;52.134;5.596;2023-04-24T08:00:32;8.90;99.90
19206;DHT22;59358;52.134;5.596;2023-04-24T08:02:59;8.80;99.90
19206;DHT22;59358;52.134;5.596;2023-04-24T08:05:26;8.90;99.90
19206;DHT22;59358;52.134;5.596;2023-04-24T08:07:54;8.90;99.90
19206;DHT22;59358;52.134;5.596;2023-04-24T08:10:21;8.90;99.90
19206;DHT22;59358;52.134;5.596;2023-04-24T08:12:48;9.00;99.90
19206;DHT22;59358;52.134;5.596;2023-04-24T08:15:16;9.00;99.90
19206;DHT22;59358;52.134;5.596;2023-04-24T08:17:44;9.10;99.90
19206;DHT22;59358;52.134;5.596;2023-04-24T08:20:11;9.10;99.90
19206;DHT22;59358;52.134;5.596;2023-04-24T08:22:39;9.10;99.90
19206;DHT22;59358;52.134;5.596;2023-04-24T08:25:07;9.10;99.90
19206;DHT22;59358;52.134;5.596;2023-04-24T08:27:33;9.10;99.90
19206;DHT22;59358;52.134;5.596;2023-04-24T08:30:02;9.00;99.90
19206;DHT22;59358;52.134;5.596;2023-04-24T08:32:30;8.90;99.90
19206;DHT22;59358;52.134;5.596;2023-04-24T08:34:58;8.80;99.90
19206;DHT22;59358;52.134;5.596;2023-04-24T08:37:27;8.70;99.90
19206;DHT22;59358;52.134;5.596;2023-04-24T08:39:54;8.70;99.90
19206;DHT22;59358;52.134;5.596;2023-04-24T08:42:21;8.70;99.90
19206;DHT22;59358;52.134;5.596;2023-04-24T08:44:48;8.70;99.90
19206;DHT22;59358;52.134;5.596;2023-04-24T08:47:16;8.70;99.90
19206;DHT22;59358;52.134;5.596;2023-04-24T08:49:44;8.80;99.90
19206;DHT22;59358;52.134;5.596;2023-04-24T08:52:15;8.70;99.90
19206;DHT22;59358;52.134;5.596;2023-04-24T08:54:43;8.50;99.90
19206;DHT22;59358;52.134;5.596;2023-04-24T09:00:33;8.70;99.90
19206;DHT22;59358;52.134;5.596;2023-04-24T09:03:02;8.70;99.90
19206;DHT22;59358;52.134;5.596;2023-04-24T09:05:32;8.70;99.90
19206;DHT22;59358;52.134;5.596;2023-04-24T09:08:35;8.70;99.90
19206;DHT22;59358;52.134;5.596;2023-04-24T09:11:03;8.70;99.90
19206;DHT22;59358;52.134;5.596;2023-04-24T09:13:30;8.80;99.90
19206;DHT22;59358;52.134;5.596;2023-04-24T09:15:58;8.80;99.90
19206;DHT22;59358;52.134;5.596;2023-04-24T09:18:26;9.00;99.90
19206;DHT22;59358;52.134;5.596;2023-04-24T09:21:02;9.00;99.90
19206;DHT22;59358;52.134;5.596;2023-04-24T09:23:30;9.10;99.90
19206;DHT22;59358;52.134;5.596;2023-04-24T09:25:58;9.00;99.90
19206;DHT22;59358;52.134;5.596;2023-04-24T09:28:36;9.00;99.90
19206;DHT22;59358;52.134;5.596;2023-04-24T09:31:08;9.00;99.90
19206;DHT22;59358;52.134;5.596;2023-04-24T09:33:36;9.10;99.90
19206;DHT22;59358;52.134;5.596;2023-04-24T09:36:04;9.20;99.90
19206;DHT22;59358;52.134;5.596;2023-04-24T09:38:34;9.40;99.90
19206;DHT22;59358;52.134;5.596;2023-04-24T09:41:01;9.50;99.90
19206;DHT22;59358;52.134;5.596;2023-04-24T09:43:29;9.50;99.90
19206;DHT22;59358;52.134;5.596;2023-04-24T09:45:57;9.70;99.90
19206;DHT22;59358;52.134;5.596;2023-04-24T09:48:30;9.80;99.90
19206;DHT22;59358;52.134;5.596;2023-04-24T09:50:57;9.80;99.90
19206;DHT22;59358;52.134;5.596;2023-04-24T09:53:27;10.00;99.90
19206;DHT22;59358;52.134;5.596;2023-04-24T09:55:54;10.20;99.90
19206;DHT22;59358;52.134;5.596;2023-04-24T09:58:25;10.10;99.90
19206;DHT22;59358;52.134;5.596;2023-04-24T10:00:53;10.10;99.90
19206;DHT22;59358;52.134;5.596;2023-04-24T10:03:24;10.10;99.90
19206;DHT22;59358;52.134;5.596;2023-04-24T10:05:52;10.30;99.90
19206;DHT22;59358;52.134;5.596;2023-04-24T10:08:20;9.90;99.90
19206;DHT22;59358;52.134;5.596;2023-04-24T10:10:49;9.70;99.90
19206;DHT22;59358;52.134;5.596;2023-04-24T10:13:16;9.70;99.90
19206;DHT22;59358;52.134;5.596;2023-04-24T10:15:43;9.60;99.90
19206;DHT22;59358;52.134;5.596;2023-04-24T10:18:11;9.70;99.90
19206;DHT22;59358;52.134;5.596;2023-04-24T10:20:39;9.80;99.90
19206;DHT22;59358;52.134;5.596;2023-04-24T10:23:06;10.00;99.90
19206;DHT22;59358;52.134;5.596;2023-04-24T10:25:35;10.20;99.90
19206;DHT22;59358;52.134;5.596;2023-04-24T10:28:04;10.30;99.90
19206;DHT22;59358;52.134;5.596;2023-04-24T10:30:33;10.20;99.90
19206;DHT22;59358;52.134;5.596;2023-04-24T10:33:01;9.80;99.90
19206;DHT22;59358;52.134;5.596;2023-04-24T10:35:31;10.00;99.90
19206;DHT22;59358;52.134;5.596;2023-04-24T10:38:01;10.10;99.90
19206;DHT22;59358;52.134;5.596;2023-04-24T10:40:36;10.10;99.90
19206;DHT22;59358;52.134;5.596;2023-04-24T10:43:05;10.20;99.90
19206;DHT22;59358;52.134;5.596;2023-04-24T10:45:33;10.30;99.90
19206;DHT22;59358;52.134;5.596;2023-04-24T10:48:02;10.40;99.90
19206;DHT22;59358;52.134;5.596;2023-04-24T10:50:42;10.70;99.90
19206;DHT22;59358;52.134;5.596;2023-04-24T10:53:13;11.00;99.90
19206;DHT22;59358;52.134;5.596;2023-04-24T10:55:43;11.30;99.90
19206;DHT22;59358;52.134;5.596;2023-04-24T10:58:11;11.30;99.90
19206;DHT22;59358;52.134;5.596;2023-04-24T11:00:39;11.60;99.90
19206;DHT22;59358;52.134;5.596;2023-04-24T11:03:07;11.60;99.90
19206;DHT22;59358;52.134;5.596;2023-04-24T11:05:57;11.20;99.90
19206;DHT22;59358;52.134;5.596;2023-04-24T11:08:26;10.70;99.90
19206;DHT22;59358;52.134;5.596;2023-04-24T11:11:01;10.40;99.90
19206;DHT22;59358;52.134;5.596;2023-04-24T11:16:32;9.80;99.90
19206;DHT22;59358;52.134;5.596;2023-04-24T11:19:04;9.70;99.90
19206;DHT22;59358;52.134;5.596;2023-04-24T11:21:32;9.60;99.90
19206;DHT22;59358;52.134;5.596;2023-04-24T11:24:29;9.40;99.90
19206;DHT22;59358;52.134;5.596;2023-04-24T11:26:58;9.30;99.90
19206;DHT22;59358;52.134;5.596;2023-04-24T11:29:43;9.20;99.90
19206;DHT22;59358;52.134;5.596;2023-04-24T11:32:22;9.10;99.90
19206;DHT22;59358;52.134;5.596;2023-04-24T11:34:52;9.60;99.90
19206;DHT22;59358;52.134;5.596;2023-04-24T11:37:19;9.80;99.90
19206;DHT22;59358;52.134;5.596;2023-04-24T11:39:46;10.00;99.90
19206;DHT22;59358;52.134;5.596;2023-04-24T11:42:14;10.10;99.90
19206;DHT22;59358;52.134;5.596;2023-04-24T11:44:42;10.30;99.90
19206;DHT22;59358;52.134;5.596;2023-04-24T11:47:09;10.30;99.90
19206;DHT22;59358;52.134;5.596;2023-04-24T11:49:38;10.50;99.90
19206;DHT22;59358;52.134;5.596;2023-04-24T11:52:05;10.70;99.90
19206;DHT22;59358;52.134;5.596;2023-04-24T11:54:32;11.20;99.90
19206;DHT22;59358;52.134;5.596;2023-04-24T11:56:59;11.30;99.90
19206;DHT22;59358;52.134;5.596;2023-04-24T11:59:26;10.90;99.90
19206;DHT22;59358;52.134;5.596;2023-04-24T12:01:52;10.60;99.90
19206;DHT22;59358;52.134;5.596;2023-04-24T12:04:19;10.60;99.90
19206;DHT22;59358;52.134;5.596;2023-04-24T12:07:03;10.90;99.90
19206;DHT22;59358;52.134;5.596;2023-04-24T12:09:40;11.20;99.90
19206;DHT22;59358;52.134;5.596;2023-04-24T12:12:08;11.50;99.90
19206;DHT22;59358;52.134;5.596;2023-04-24T12:14:46;12.00;99.90
19206;DHT22;59358;52.134;5.596;2023-04-24T12:17:13;12.00;99.90
19206;DHT22;59358;52.134;5.596;2023-04-24T12:19:45;11.90;99.90
19206;DHT22;59358;52.134;5.596;2023-04-24T12:22:14;12.00;99.90
19206;DHT22;59358;52.134;5.596;2023-04-24T12:25:01;11.90;99.90
19206;DHT22;59358;52.134;5.596;2023-04-24T12:27:30;11.70;99.90
19206;DHT22;59358;52.134;5.596;2023-04-24T12:29:58;11.10;99.90
19206;DHT22;59358;52.134;5.596;2023-04-24T12:32:25;10.90;99.90
19206;DHT22;59358;52.134;5.596;2023-04-24T12:34:53;10.60;99.90
19206;DHT22;59358;52.134;5.596;2023-04-24T12:37:23;10.50;99.90
19206;DHT22;59358;52.134;5.596;2023-04-24T12:40:01;10.30;99.90
19206;DHT22;59358;52.134;5.596;2023-04-24T12:42:29;10.20;99.90
19206;DHT22;59358;52.134;5.596;2023-04-24T12:44:57;10.20;99.90
19206;DHT22;59358;52.134;5.596;2023-04-24T12:47:25;10.20;99.90
19206;DHT22;59358;52.134;5.596;2023-04-24T12:49:52;10.30;99.90
19206;DHT22;59358;52.134;5.596;2023-04-24T12:52:22;10.30;99.90
19206;DHT22;59358;52.134;5.596;2023-04-24T12:54:49;10.40;99.90
19206;DHT22;59358;52.134;5.596;2023-04-24T12:57:16;10.40;99.90
19206;DHT22;59358;52.134;5.596;2023-04-24T12:59:43;10.70;99.90
19206;DHT22;59358;52.134;5.596;2023-04-24T13:02:10;10.60;99.90
19206;DHT22;59358;52.134;5.596;2023-04-24T13:04:37;10.60;99.90
19206;DHT22;59358;52.134;5.596;2023-04-24T13:07:04;10.60;99.90
19206;DHT22;59358;52.134;5.596;2023-04-24T13:09:34;10.50;99.90
19206;DHT22;59358;52.134;5.596;2023-04-24T13:12:02;10.60;99.90
19206;DHT22;59358;52.134;5.596;2023-04-24T13:14:28;10.30;99.90
19206;DHT22;59358;52.134;5.596;2023-04-24T13:16:55;10.10;99.90
19206;DHT22;59358;52.134;5.596;2023-04-24T13:19:24;9.70;99.90
19206;DHT22;59358;52.134;5.596;2023-04-24T13:21:51;9.60;99.90
19206;DHT22;59358;52.134;5.596;2023-04-24T13:24:18;9.70;99.90
19206;DHT22;59358;52.134;5.596;2023-04-24T13:26:46;10.00;99.90
19206;DHT22;59358;52.134;5.596;2023-04-24T13:29:13;10.20;99.90
19206;DHT22;59358;52.134;5.596;2023-04-24T13:31:40;10.40;99.90
19206;DHT22;59358;52.134;5.596;2023-04-24T13:34:07;10.60;99.90
19206;DHT22;59358;52.134;5.596;2023-04-24T13:36:33;11.00;99.90
19206;DHT22;59358;52.134;5.596;2023-04-24T13:39:00;11.20;99.90
19206;DHT22;59358;52.134;5.596;2023-04-24T13:41:28;11.40;99.90
19206;DHT22;59358;52.134;5.596;2023-04-24T13:43:57;11.30;99.90
19206;DHT22;59358;52.134;5.596;2023-04-24T13:46:23;11.40;99.90
19206;DHT22;59358;52.134;5.596;2023-04-24T13:48:51;11.70;99.90
19206;DHT22;59358;52.134;5.596;2023-04-24T13:51:18;12.20;99.90
19206;DHT22;59358;52.134;5.596;2023-04-24T13:53:44;12.50;99.90
19206;DHT22;59358;52.134;5.596;2023-04-24T13:56:11;12.10;99.90
19206;DHT22;59358;52.134;5.596;2023-04-24T13:58:39;11.70;99.90
19206;DHT22;59358;52.134;5.596;2023-04-24T14:01:07;11.30;99.90
19206;DHT22;59358;52.134;5.596;2023-04-24T14:03:34;11.00;99.90
19206;DHT22;59358;52.134;5.596;2023-04-24T14:06:01;10.90;99.90
19206;DHT22;59358;52.134;5.596;2023-04-24T14:08:28;10.80;99.90
19206;DHT22;59358;52.134;5.596;2023-04-24T14:10:54;11.00;99.90
19206;DHT22;59358;52.134;5.596;2023-04-24T14:13:21;11.10;99.90
19206;DHT22;59358;52.134;5.596;2023-04-24T14:15:48;11.10;99.90
19206;DHT22;59358;52.134;5.596;2023-04-24T14:18:17;11.30;99.90
19206;DHT22;59358;52.134;5.596;2023-04-24T14:20:44;11.70;99.90
19206;DHT22;59358;52.134;5.596;2023-04-24T14:23:10;12.20;99.90
19206;DHT22;59358;52.134;5.596;2023-04-24T14:25:37;11.90;99.90
19206;DHT22;59358;52.134;5.596;2023-04-24T14:28:05;11.60;99.90
19206;DHT22;59358;52.134;5.596;2023-04-24T14:30:32;11.90;99.90
19206;DHT22;59358;52.134;5.596;2023-04-24T14:32:59;12.00;99.90
19206;DHT22;59358;52.134;5.596;2023-04-24T14:35:27;12.10;99.90
19206;DHT22;59358;52.134;5.596;2023-04-24T14:37:56;11.90;99.90
19206;DHT22;59358;52.134;5.596;2023-04-24T14:40:23;11.70;99.90
19206;DHT22;59358;52.134;5.596;2023-04-24T14:42:50;11.60;99.90
19206;DHT22;59358;52.134;5.596;2023-04-24T14:45:17;11.50;99.90
19206;DHT22;59358;52.134;5.596;2023-04-24T14:47:45;11.40;99.90
19206;DHT22;59358;52.134;5.596;2023-04-24T14:50:11;11.30;99.90
19206;DHT22;59358;52.134;5.596;2023-04-24T14:52:40;11.40;99.90
19206;DHT22;59358;52.134;5.596;2023-04-24T14:55:07;11.20;99.90
19206;DHT22;59358;52.134;5.596;2023-04-24T14:57:34;11.30;99.90
19206;DHT22;59358;52.134;5.596;2023-04-24T15:00:03;11.20;99.90
19206;DHT22;59358;52.134;5.596;2023-04-24T15:02:32;11.20;99.90
19206;DHT22;59358;52.134;5.596;2023-04-24T15:04:59;11.10;99.90
19206;DHT22;59358;52.134;5.596;2023-04-24T15:07:26;11.00;99.90
19206;DHT22;59358;52.134;5.596;2023-04-24T15:09:54;11.10;99.90
19206;DHT22;59358;52.134;5.596;2023-04-24T15:12:21;11.10;99.90
19206;DHT22;59358;52.134;5.596;2023-04-24T15:14:48;11.60;99.90
19206;DHT22;59358;52.134;5.596;2023-04-24T15:17:15;11.90;99.90
19206;DHT22;59358;52.134;5.596;2023-04-24T15:19:41;11.60;99.90
19206;DHT22;59358;52.134;5.596;2023-04-24T15:22:09;11.20;99.90
19206;DHT22;59358;52.134;5.596;2023-04-24T15:24:36;10.70;99.90
19206;DHT22;59358;52.134;5.596;2023-04-24T15:27:04;10.50;99.90
19206;DHT22;59358;52.134;5.596;2023-04-24T15:29:31;10.40;99.90
19206;DHT22;59358;52.134;5.596;2023-04-24T15:31:58;10.40;99.90
19206;DHT22;59358;52.134;5.596;2023-04-24T15:34:25;10.40;99.90
19206;DHT22;59358;52.134;5.596;2023-04-24T15:36:51;11.20;99.90
19206;DHT22;59358;52.134;5.596;2023-04-24T15:39:22;10.90;99.90
19206;DHT22;59358;52.134;5.596;2023-04-24T15:41:49;10.80;99.90
19206;DHT22;59358;52.134;5.596;2023-04-24T15:44:17;11.20;99.90
19206;DHT22;59358;52.134;5.596;2023-04-24T15:46:44;11.60;99.90
19206;DHT22;59358;52.134;5.596;2023-04-24T15:49:11;12.80;99.90
19206;DHT22;59358;52.134;5.596;2023-04-24T15:51:37;14.50;99.90